MET'MAP v2.0
soon released !

Expected late october,
this new version will be
more efficient, smarter,
and hosted on a brand new
server x3 powerfull...
...and still free !


Not compatible ?
Try the mobile version !

LOG IN : | Subscribe | Disclaimer | Who is Orbifly ? |
ICAO code :

TAF - EGVO RAF Odiham - 12 Nov 2019 11:49 UTC
Data Sources :     NOAA   


- Airport Elevation : 405 ft
- IATA code : ODH
- No reported NOTAMs.


EGVO - RAF Odiham

Latest METAR recorded : 2015/08/11 07:50 EGVO 110750Z 04001KT 9999 SCT034 BKN080 BKN160 14/11 Q1019 BLU NOSIG
TAF TAF EGVO
Valid from the 12 at 09:00 until the 12 at 21:00 UTC


120737Z 1209/1221 26014KT 9999 FEW040
TEMPO 1209/1216 26015G26KT
PROB40
TEMPO 1212/1214 SCT020
BECMG 1214/1216 BKN020
PROB30
TEMPO 1215/1218 6000 SHRA SCT012
BECMG 1218/1221 FEW030

Source NOAA


MET'MAP, your aeronautical weather chart ! - Copyright ORBIFLY December 2007

Programming & Development : Alexandra Zaïnal
Co-Developer : Marc-Olivier Méhu
Technical & hardware support : Manuel Goepfert
Concept & Financing : Baudouin d'Aumeries